MDPP/POP METAR and TAF weather

Enter ICAO airport designator
Station Type Date Time Source
MDPP METAR 2018/12/15 20:00 UTC NOAA

MDPP 152000Z 09010KT 9999 FEW022 30/24 Q1017


Station Type Date Time Source
MDPP Decoded METAR 2018/12/15 20:00 UTC NOAA

Puerto Plata International, Dominican Republic (MDPP) 19-45N 070-33W
Dec 15, 2018 - 03:00 PM EST / 2018.12.15 2000 UTC
Wind: from the E (090 degrees) at 12 MPH (10 KT):0
Visibility: greater than 7 mile(s):0
Sky conditions: mostly clear
Temperature: 86 F (30 C)
Heat index: 95.0 F (35.0 C):1
Dew Point: 75 F (24 C)
Relative Humidity: 70%
Pressure (altimeter): 30.03 in. Hg (1017 hPa)
ob: MDPP 152000Z 09010KT 9999 FEW022 30/24 Q1017
cycle: 20

Station Type Date Time Source
MDPP TAF 2018/12/15 18:21 UTC NOAA

TAF MDPP 151600Z 1518/1618 09010KT 9999 BKN020 PROB40 1518/1600 5000 +RA BKN016
BECMG 1519/1521 02015KT


Example: see airport list